Tozeur, Tunisia
Current Conditions -  °F | °C
As of 8:00 PM on Wednesday 17 Dec 2014 (Local Time) from DTTZ Reporting Station
Few Clouds Few Clouds  
Wind Chill: 55°   Ceiling: Unl
Heat Index: 55°   Visibility: 6mi
Dew Point: 41°   Wind: 10mph
Humidity: 58%   Direction: 260°W
Pressure: 30.15"   Gusts: NA
Location:  33.92°N, 8.13°E
Report Text: DTTZ 171900Z 26009KT 9999 FEW030 13/05 Q1021 NOSIG
Loading
Personal Weather Stations






























Interactive Weather Map New forecast layout! Learn more

10-Day Weather Forecast

Advertisements
Track Severe Weather on mobile